Atlantic - Newfoundland: Past 24 Hour Conditions

 

North Cape

07:00 PM AST 22 November 2014
This table is a summary of hourly weather conditions for the past 24 hours.
Date / Time
(AST)
Wind(knots) Conditions Visibility(km) Pressure(kPa) Air tempC) Relative humidity(%) Dew pointC) Wind Chill
22 November 2014
19:00 SW 26 gust 35 N/A N/A 100.9 -1 67 -6 -9
18:00 WSW 29 gust 35 N/A N/A 101.0 -2 68 -7 -11
17:00 WSW 28 gust 36 N/A N/A 101.1 -2 79 -5 -11
16:00 WSW 28 gust 35 N/A N/A 101.2 -3 80 -6 -12
15:00 SW 15 gust 24 N/A N/A 101.3 -4 80 -7 -11
14:00 WSW 23 gust 28 N/A N/A 101.3 -3 69 -8 -12
13:00 WSW 25 gust 31 N/A N/A 101.5 -4 72 -9 -14
12:00 WSW 25 N/A N/A 101.6 -5 77 -8 -14
11:00 W 17 gust 25 N/A N/A 101.8 -5 81 -8 -13
10:00 W 21 gust 27 N/A N/A 101.9 -5 83 -8 -14
9:00 W 25 gust 30 N/A N/A 101.9 -5 78 -8 -15
8:00 WNW 24 gust 30 N/A N/A 101.8 -5 82 -8 -15
7:00 WNW 29 N/A N/A 101.8 -5 80 -8 -16
6:00 WNW 31 gust 37 N/A N/A 101.7 -5 82 -7 -15
5:00 WNW 29 gust 36 N/A N/A 101.7 -5 82 -7 -15
4:00 WNW 29 gust 36 N/A N/A 101.6 -4 82 -7 -14
3:00 WNW 27 gust 35 N/A N/A 101.6 -4 82 -7 -14
2:00 WNW 28 gust 33 N/A N/A 101.5 -4 79 -7 -14
1:00 WNW 31 gust 36 N/A N/A 101.4 -4 79 -7 -14
0:00 WNW 29 gust 36 N/A N/A 101.4 -3 78 -7 -13
21 November 2014
23:00 WNW 28 gust 34 N/A N/A 101.3 -3 78 -6 -12
22:00 WNW 27 gust 36 N/A N/A 101.2 -3 77 -6 -12
21:00 WNW 31 gust 37 N/A N/A 101.2 -3 74 -7 -12
20:00 WNW 32 gust 39 N/A N/A 101.1 -3 73 -7 -12
19:00 WNW 34 gust 39 N/A N/A 101.0 -2 72 -7 -12
 
Map of Atlantic - Newfoundland marine weather areas Southwestern Grand Banks - 44138 Banquereau - 44139 Tail of the Bank - 44140 Nickerson Bank - 44251 Northeast Burgeo Bank - 44255 Blanc-Sablon Airport Cap Whittle Chevery Natashquan Airport Heath Point Miscou Island Grand Étang Ingonish Beach North Mountain St.Paul Island J.A. Douglas McCurdy Sydney Airport Charlottetown Airport East Point North Cape Argentia Bonavista Burgeo Cape Race Corner Brook Daniel's Harbour Englee Ferolle Point La Scie Port aux Basques Rocky Harbour Sagona Island St. Anthony Airport St. John's Int'l Airport St. Lawrence Stephenville Airport Twillingate Winterland Wreckhouse Cartwright Airport Mary's Harbour Grates Cove Pool's Island Marticot Island Long Pond Îles de la Madeleine Airport
Legend: buoyBuoy land stationLand Station